Orlando, Florida
Current Conditions -  °F | °C
As of 2:53 PM on Thursday 23 Oct 2014 (Local Time) from KORL Reporting Station
Few Clouds Few Clouds  
Wind Chill: 80°   Ceiling: Unl
Heat Index: 80°   Visibility: 10mi
Dew Point: 57°   Wind: 12mph
Humidity: 45%   Direction: 60°ENE
Pressure: 29.95"   Gusts: NA
Location:  28.54°N, 81.38°W
Report Text: KORL 231853Z 06010KT 10SM FEW055 27/14 A2995 RMK AO2 SLP146 T02670139
Loading
Personal Weather Stations






























Interactive Weather Map
Tropical Storm Tracking
New forecast layout! Learn more

10-Day Weather Forecast

Advertisements
Track Severe Weather on mobile